Terminal Aerodrome Forecast
Issued by NWS

Home | Current Version | Previous Version | Text Only | Print | Product List | Glossary On
Versions: 1 2 3 4 5 6 7 8 9 10 11 12 13 14
000
FTUS42 KMLB 291727
TAFTIX
TAF
KTIX 291727Z 2918/3018 09009KT P6SM VCTS SCT035CB BKN250
     FM292100 08008KT P6SM SCT035 SCT080 BKN250
     FM300000 12005KT P6SM SCT035 SCT120 BKN250
     FM301200 13007KT P6SM SCT020 BKN035 BKN250
      TEMPO 3012/3015 3SM SHRA BKN020
     FM301500 11010KT P6SM SCT020 BKN035 BKN250
      TEMPO 3015/3018 3SM TSRA BKN025CB=

USA.gov is the U.S. government's official web portal to all federal, state and local government web resources and services.